Time;durP1;ratioP1;P1;durP2;ratioP2;P2;SDS_P1;SDS_P2;PMS_P1;PMS_P2;Temp;Humidity;BMP_temperature;BMP_pressure;BME280_temperature;BME280_humidity;BME280_pressure;Samples;Min_cycle;Max_cycle;Signal;HPM_P1;HPM_P2
2021/12/20 00:00:55;;;;;;;;;;;5.40;99.90;;;;;;4934639;29;20014;-81
2021/12/20 00:03:20;;;;;;;;;;;5.40;99.90;;;;;;4921009;29;19937;-81
2021/12/20 00:05:46;;;;;;;;;;;5.40;99.90;;;;;;4954229;29;20302;-81
2021/12/20 00:08:11;;;;;;;;;;;5.40;99.90;;;;;;4952999;28;19922;-81
2021/12/20 00:10:37;;;;;;;;;;;5.50;99.90;;;;;;4940877;28;20442;-81
2021/12/20 00:13:02;;;;;;;;;;;5.40;99.90;;;;;;4918720;29;19922;-81
2021/12/20 00:15:28;;;;;;;;;;;5.50;99.90;;;;;;4918765;29;19978;-81
2021/12/20 00:17:53;;;;;;;;;;;5.50;99.90;;;;;;4918777;29;19927;-81
2021/12/20 00:20:19;;;;;;;;;;;5.50;99.90;;;;;;4918770;29;19930;-81
2021/12/20 00:22:45;;;;;;;;;;;5.50;99.90;;;;;;4934510;29;19929;-81
2021/12/20 00:25:10;;;;;;;;;;;5.50;99.90;;;;;;4926798;29;19923;-81
2021/12/20 00:27:36;;;;;;;;;;;5.50;99.90;;;;;;4935723;29;20379;-81
2021/12/20 00:30:03;;;;;;;;;;;5.50;99.90;;;;;;4937206;29;19923;-81
2021/12/20 00:32:29;;;;;;;;;;;5.50;99.90;;;;;;4937171;29;19930;-81
2021/12/20 00:34:54;;;;;;;;;;;5.50;99.90;;;;;;4937017;29;20303;-81
2021/12/20 00:40:20;;;;;;;;;;;5.50;99.90;;;;;;4948540;29;19937;-81
2021/12/20 00:43:06;;;;;;;;;;;5.40;99.90;;;;;;4933857;29;19930;-81
2021/12/20 00:45:33;;;;;;;;;;;5.40;99.90;;;;;;4933211;29;19974;-81
2021/12/20 00:47:59;;;;;;;;;;;5.40;99.90;;;;;;4947455;28;19923;-81
2021/12/20 00:50:25;;;;;;;;;;;5.40;99.90;;;;;;4966002;28;19945;-82
2021/12/20 00:52:51;;;;;;;;;;;5.40;99.90;;;;;;4947893;29;19930;-82
2021/12/20 00:55:18;;;;;;;;;;;5.40;99.90;;;;;;4949295;29;20347;-81
2021/12/20 00:57:48;;;;;;;;;;;5.40;99.90;;;;;;4953526;29;20417;-81
2021/12/20 01:00:15;;;;;;;;;;;5.40;99.90;;;;;;4953047;28;20104;-81
2021/12/20 01:02:40;;;;;;;;;;;5.40;99.90;;;;;;4950493;29;19929;-81
2021/12/20 01:05:07;;;;;;;;;;;5.40;99.90;;;;;;4936846;29;20009;-81
2021/12/20 01:07:32;;;;;;;;;;;5.40;99.90;;;;;;4937309;29;19969;-81
2021/12/20 01:10:01;;;;;;;;;;;5.40;99.90;;;;;;4952350;28;19961;-81
2021/12/20 01:12:32;;;;;;;;;;;5.40;99.90;;;;;;4936800;28;19927;-82
2021/12/20 01:15:00;;;;;;;;;;;5.40;99.90;;;;;;4936827;29;19927;-81
2021/12/20 01:17:26;;;;;;;;;;;5.30;99.90;;;;;;4924220;29;19929;-81
2021/12/20 01:19:52;;;;;;;;;;;5.30;99.90;;;;;;4917842;29;20451;-82
2021/12/20 01:22:17;;;;;;;;;;;5.30;99.90;;;;;;4930104;29;19922;-81
2021/12/20 01:24:42;;;;;;;;;;;5.30;99.90;;;;;;4917522;29;19923;-81
2021/12/20 01:27:08;;;;;;;;;;;5.30;99.90;;;;;;4928213;29;19926;-81
2021/12/20 01:29:34;;;;;;;;;;;5.30;99.90;;;;;;4926583;29;19927;-82
2021/12/20 01:31:59;;;;;;;;;;;5.30;99.90;;;;;;4933628;29;19929;-81
2021/12/20 01:34:25;;;;;;;;;;;5.30;99.90;;;;;;4933588;29;20014;-81
2021/12/20 01:36:50;;;;;;;;;;;5.30;99.90;;;;;;4965487;28;19923;-81
2021/12/20 01:39:16;;;;;;;;;;;5.30;99.90;;;;;;4968306;28;19922;-81
2021/12/20 01:41:43;;;;;;;;;;;5.30;99.90;;;;;;4941657;28;20310;-81
2021/12/20 01:44:09;;;;;;;;;;;5.30;99.90;;;;;;4951055;28;20151;-81
2021/12/20 01:46:34;;;;;;;;;;;5.30;99.90;;;;;;4936598;29;20339;-81
2021/12/20 01:49:02;;;;;;;;;;;5.30;99.90;;;;;;4936224;29;19945;-81
2021/12/20 01:53:59;;;;;;;;;;;5.30;99.90;;;;;;4952308;29;19926;-81
2021/12/20 01:56:24;;;;;;;;;;;5.30;99.90;;;;;;4952675;29;20272;-82
2021/12/20 01:58:50;;;;;;;;;;;5.30;99.90;;;;;;4943981;29;20033;-81
2021/12/20 02:03:44;;;;;;;;;;;5.30;99.90;;;;;;4968723;28;19927;-81
2021/12/20 02:06:21;;;;;;;;;;;5.30;99.90;;;;;;4952700;28;19922;-81
2021/12/20 02:08:47;;;;;;;;;;;5.30;99.90;;;;;;4969893;28;20287;-81
2021/12/20 02:11:13;;;;;;;;;;;5.30;99.90;;;;;;4952787;29;19922;-81
2021/12/20 02:13:39;;;;;;;;;;;5.30;99.90;;;;;;4938790;29;19933;-81
2021/12/20 02:16:05;;;;;;;;;;;5.30;99.90;;;;;;4955746;28;19923;-81
2021/12/20 02:18:31;;;;;;;;;;;5.30;99.90;;;;;;4940743;28;20021;-81
2021/12/20 02:20:57;;;;;;;;;;;5.30;99.90;;;;;;4951806;29;20419;-81
2021/12/20 02:23:22;;;;;;;;;;;5.30;99.90;;;;;;4936617;29;19923;-81
2021/12/20 02:25:51;;;;;;;;;;;5.30;99.90;;;;;;4983372;23;20028;-75
2021/12/20 02:28:18;;;;;;;;;;;5.30;99.90;;;;;;4997534;28;19921;-76
2021/12/20 02:38:59;;;;;;;;;;;5.20;99.90;;;;;;5005625;28;19921;-76
2021/12/20 02:41:29;;;;;;;;;;;5.20;99.90;;;;;;4996850;28;19925;-76
2021/12/20 02:44:04;;;;;;;;;;;5.20;99.90;;;;;;4997172;28;19922;-76
2021/12/20 02:49:07;;;;;;;;;;;5.20;99.90;;;;;;5012431;28;20394;-76
2021/12/20 02:51:33;;;;;;;;;;;5.20;99.90;;;;;;4996888;28;19976;-76
2021/12/20 02:53:59;;;;;;;;;;;5.20;99.90;;;;;;4996432;28;19925;-76
2021/12/20 02:56:26;;;;;;;;;;;5.20;99.90;;;;;;4997053;28;19922;-75
2021/12/20 02:58:53;;;;;;;;;;;5.20;99.90;;;;;;4996618;28;19983;-76
2021/12/20 03:01:19;;;;;;;;;;;5.20;99.90;;;;;;4997169;28;19922;-76
2021/12/20 03:03:48;;;;;;;;;;;5.20;99.90;;;;;;4996373;28;19921;-75
2021/12/20 03:06:19;;;;;;;;;;;5.20;99.90;;;;;;4996392;28;19972;-76
2021/12/20 03:08:47;;;;;;;;;;;5.20;99.90;;;;;;4996254;28;19929;-76
2021/12/20 03:11:19;;;;;;;;;;;5.20;99.90;;;;;;4996286;28;19921;-76
2021/12/20 03:13:49;;;;;;;;;;;5.30;99.90;;;;;;4995976;28;19932;-76
2021/12/20 03:16:14;;;;;;;;;;;5.20;99.90;;;;;;4996383;28;20021;-75
2021/12/20 03:18:40;;;;;;;;;;;5.10;99.90;;;;;;4996006;28;19976;-76
2021/12/20 03:21:06;;;;;;;;;;;5.10;99.90;;;;;;4995858;28;19933;-76
2021/12/20 03:23:35;;;;;;;;;;;5.10;99.90;;;;;;4995957;28;20501;-76
2021/12/20 03:26:01;;;;;;;;;;;5.10;99.90;;;;;;5012633;28;19928;-76
2021/12/20 03:28:26;;;;;;;;;;;5.20;99.90;;;;;;4996043;28;20405;-76
2021/12/20 03:30:52;;;;;;;;;;;5.10;99.90;;;;;;4996104;28;19956;-76
2021/12/20 03:33:18;;;;;;;;;;;5.10;99.90;;;;;;4995837;28;19926;-76
2021/12/20 03:35:44;;;;;;;;;;;5.10;99.90;;;;;;4996192;28;19928;-76
2021/12/20 03:38:09;;;;;;;;;;;5.10;99.90;;;;;;4995646;28;19928;-76
2021/12/20 03:40:36;;;;;;;;;;;5.00;99.90;;;;;;5012588;28;19922;-76
2021/12/20 03:43:03;;;;;;;;;;;5.10;99.90;;;;;;5010785;28;19925;-76
2021/12/20 03:45:31;;;;;;;;;;;5.00;99.90;;;;;;5012280;28;19921;-76
2021/12/20 03:47:59;;;;;;;;;;;5.00;99.90;;;;;;5012075;28;20393;-75
2021/12/20 03:50:27;;;;;;;;;;;5.00;99.90;;;;;;4995332;28;19928;-76
2021/12/20 03:52:53;;;;;;;;;;;5.00;99.90;;;;;;4995677;28;19926;-76
2021/12/20 03:55:19;;;;;;;;;;;5.00;99.90;;;;;;4995959;28;19933;-76
2021/12/20 03:57:44;;;;;;;;;;;5.00;99.90;;;;;;4995463;28;20404;-76
2021/12/20 04:00:11;;;;;;;;;;;4.90;99.90;;;;;;5011953;28;20373;-76
2021/12/20 04:02:42;;;;;;;;;;;4.90;99.90;;;;;;4995702;28;19944;-76
2021/12/20 04:05:10;;;;;;;;;;;4.80;99.90;;;;;;4995843;28;19921;-76
2021/12/20 04:07:36;;;;;;;;;;;4.90;99.90;;;;;;4995699;28;19929;-76
2021/12/20 04:10:05;;;;;;;;;;;4.90;99.90;;;;;;4995318;28;20523;-76
2021/12/20 04:12:31;;;;;;;;;;;4.90;99.90;;;;;;4995350;28;19922;-76
2021/12/20 04:14:57;;;;;;;;;;;4.80;99.90;;;;;;4994786;28;19933;-76
2021/12/20 04:17:23;;;;;;;;;;;4.80;99.90;;;;;;4995260;28;19925;-76
2021/12/20 04:19:51;;;;;;;;;;;4.70;99.90;;;;;;4995619;28;20012;-76
2021/12/20 04:22:18;;;;;;;;;;;4.80;99.90;;;;;;4995458;28;19922;-76
2021/12/20 04:24:47;;;;;;;;;;;4.70;99.90;;;;;;5011484;28;20047;-76
2021/12/20 04:27:12;;;;;;;;;;;4.70;99.90;;;;;;4994658;28;20024;-76
2021/12/20 04:29:38;;;;;;;;;;;4.60;99.90;;;;;;4994931;28;19976;-76
2021/12/20 04:32:04;;;;;;;;;;;4.60;99.90;;;;;;4995116;28;19925;-76
2021/12/20 04:34:30;;;;;;;;;;;4.50;99.90;;;;;;5011144;28;19932;-76
2021/12/20 04:36:56;;;;;;;;;;;4.40;99.90;;;;;;4995250;28;20016;-76
2021/12/20 04:39:26;;;;;;;;;;;4.40;99.90;;;;;;4994444;28;19995;-76
2021/12/20 04:41:51;;;;;;;;;;;4.40;99.90;;;;;;4995093;28;20040;-76
2021/12/20 04:44:17;;;;;;;;;;;4.40;99.90;;;;;;4994625;28;19930;-76
2021/12/20 04:46:43;;;;;;;;;;;4.40;99.90;;;;;;4995054;28;20008;-76
2021/12/20 04:49:08;;;;;;;;;;;4.40;99.90;;;;;;4994838;28;19932;-76
2021/12/20 04:51:34;;;;;;;;;;;4.40;99.90;;;;;;4994962;28;19921;-76
2021/12/20 04:54:03;;;;;;;;;;;4.40;99.90;;;;;;4994536;28;20017;-76
2021/12/20 04:56:28;;;;;;;;;;;4.40;99.90;;;;;;4994990;28;19952;-76
2021/12/20 04:58:54;;;;;;;;;;;4.30;99.90;;;;;;4994433;28;19926;-76
2021/12/20 05:01:19;;;;;;;;;;;4.50;99.90;;;;;;4991582;28;19975;-76
2021/12/20 05:03:45;;;;;;;;;;;4.50;99.90;;;;;;4978934;28;20312;-75
2021/12/20 05:06:11;;;;;;;;;;;4.50;99.90;;;;;;4994447;28;20437;-76
2021/12/20 05:08:46;;;;;;;;;;;4.60;99.90;;;;;;4994313;28;19921;-76
2021/12/20 05:11:12;;;;;;;;;;;4.60;99.90;;;;;;4994561;28;20545;-76
2021/12/20 05:13:38;;;;;;;;;;;4.60;99.90;;;;;;4994126;28;19936;-76
2021/12/20 05:16:03;;;;;;;;;;;4.60;99.90;;;;;;4994917;28;20008;-76
2021/12/20 05:18:29;;;;;;;;;;;4.60;99.90;;;;;;4993855;28;20147;-76
2021/12/20 05:20:55;;;;;;;;;;;4.60;99.90;;;;;;4994314;28;19968;-76
2021/12/20 05:23:23;;;;;;;;;;;4.60;99.90;;;;;;4994265;28;19922;-76
2021/12/20 05:25:48;;;;;;;;;;;4.60;99.90;;;;;;4994669;28;20020;-76
2021/12/20 05:28:14;;;;;;;;;;;4.60;99.90;;;;;;4994373;28;19987;-76
2021/12/20 05:30:40;;;;;;;;;;;4.60;99.90;;;;;;4993875;28;19921;-76
2021/12/20 05:33:08;;;;;;;;;;;4.60;99.90;;;;;;4994785;28;19922;-76
2021/12/20 05:35:44;;;;;;;;;;;4.50;99.90;;;;;;4997715;28;19929;-76
2021/12/20 05:38:09;;;;;;;;;;;4.50;99.90;;;;;;4998876;28;20372;-76
2021/12/20 05:40:41;;;;;;;;;;;4.50;99.90;;;;;;4983516;28;19922;-76
2021/12/20 05:43:07;;;;;;;;;;;4.50;99.90;;;;;;5011407;28;19921;-76
2021/12/20 05:45:38;;;;;;;;;;;4.50;99.90;;;;;;5011728;28;20016;-77
2021/12/20 05:48:06;;;;;;;;;;;4.60;99.90;;;;;;4992199;28;19975;-76
2021/12/20 05:50:31;;;;;;;;;;;4.60;99.90;;;;;;4997903;28;19922;-76
2021/12/20 05:52:57;;;;;;;;;;;4.60;99.90;;;;;;4997713;28;19929;-76
2021/12/20 05:55:23;;;;;;;;;;;4.60;99.90;;;;;;5014391;28;19926;-75
2021/12/20 05:57:49;;;;;;;;;;;4.60;99.90;;;;;;4995200;28;19922;-76
2021/12/20 06:00:18;;;;;;;;;;;4.60;99.90;;;;;;4997511;28;19953;-75
2021/12/20 06:02:46;;;;;;;;;;;4.60;99.90;;;;;;5013041;28;19921;-76
2021/12/20 06:05:11;;;;;;;;;;;4.60;99.90;;;;;;4997722;28;20012;-76
2021/12/20 06:07:40;;;;;;;;;;;4.60;99.90;;;;;;4997910;28;19972;-76
2021/12/20 06:10:06;;;;;;;;;;;4.60;99.90;;;;;;5014476;28;19922;-76
2021/12/20 06:12:35;;;;;;;;;;;4.60;99.90;;;;;;4995913;28;19929;-79
2021/12/20 06:15:02;;;;;;;;;;;4.50;99.90;;;;;;4997192;28;19984;-79
2021/12/20 06:17:30;;;;;;;;;;;4.50;99.90;;;;;;4998295;28;19921;-78
2021/12/20 06:19:59;;;;;;;;;;;4.50;99.90;;;;;;4996660;28;19921;-77
2021/12/20 06:22:33;;;;;;;;;;;4.50;99.90;;;;;;4996816;28;19926;-78
2021/12/20 06:24:59;;;;;;;;;;;4.50;99.90;;;;;;4997751;28;19921;-77
2021/12/20 06:27:25;;;;;;;;;;;4.50;99.90;;;;;;4997688;28;19926;-78
2021/12/20 06:29:51;;;;;;;;;;;4.40;99.90;;;;;;4997757;28;19928;-75
2021/12/20 06:32:31;;;;;;;;;;;4.40;99.90;;;;;;4996767;28;19921;-79
2021/12/20 06:35:00;;;;;;;;;;;4.40;99.90;;;;;;5012610;28;19925;-78
2021/12/20 06:37:33;;;;;;;;;;;4.30;99.90;;;;;;5013609;28;20392;-78
2021/12/20 06:40:06;;;;;;;;;;;4.30;99.90;;;;;;4997783;28;20281;-78
2021/12/20 06:42:39;;;;;;;;;;;4.20;99.90;;;;;;4996566;28;19921;-78
2021/12/20 06:45:07;;;;;;;;;;;4.10;99.90;;;;;;4996070;28;19929;-78
2021/12/20 06:47:45;;;;;;;;;;;4.00;99.90;;;;;;4997718;28;20012;-79
2021/12/20 06:50:11;;;;;;;;;;;4.10;99.90;;;;;;5005995;28;19932;-78
2021/12/20 06:52:42;;;;;;;;;;;3.80;99.90;;;;;;4995294;28;20000;-79
2021/12/20 06:55:11;;;;;;;;;;;3.80;99.90;;;;;;4980607;28;19969;-78
2021/12/20 06:57:39;;;;;;;;;;;3.70;99.90;;;;;;4999236;28;20027;-79
2021/12/20 07:00:05;;;;;;;;;;;3.50;99.90;;;;;;4993968;28;20126;-78
2021/12/20 07:02:34;;;;;;;;;;;3.40;99.90;;;;;;4994921;28;19929;-79
2021/12/20 07:05:02;;;;;;;;;;;3.30;99.90;;;;;;5010541;28;19921;-78
2021/12/20 07:07:31;;;;;;;;;;;3.20;99.90;;;;;;4996530;28;20023;-78
2021/12/20 07:09:57;;;;;;;;;;;3.10;99.90;;;;;;5005460;28;19979;-77
2021/12/20 07:12:27;;;;;;;;;;;2.90;99.90;;;;;;5008141;28;19929;-76
2021/12/20 07:14:53;;;;;;;;;;;2.80;99.90;;;;;;5005412;28;19929;-76
2021/12/20 07:17:19;;;;;;;;;;;2.70;99.90;;;;;;5003369;28;20056;-76
2021/12/20 07:19:45;;;;;;;;;;;2.70;99.90;;;;;;5001508;28;19926;-75
2021/12/20 07:22:13;;;;;;;;;;;2.50;99.90;;;;;;5008558;28;19928;-76
2021/12/20 07:24:39;;;;;;;;;;;2.50;99.90;;;;;;4996283;28;20473;-77
2021/12/20 07:27:07;;;;;;;;;;;2.40;99.90;;;;;;4994922;28;19987;-76
2021/12/20 07:29:40;;;;;;;;;;;2.30;99.90;;;;;;4995488;28;19964;-77
2021/12/20 07:32:15;;;;;;;;;;;2.30;99.90;;;;;;4996025;28;19965;-77
2021/12/20 07:35:11;;;;;;;;;;;2.20;99.90;;;;;;5012409;28;19965;-76
2021/12/20 07:37:57;;;;;;;;;;;2.20;99.90;;;;;;4997647;28;19969;-76
2021/12/20 07:40:29;;;;;;;;;;;2.10;99.90;;;;;;4996174;28;19944;-76
2021/12/20 07:43:20;;;;;;;;;;;;;;;;;;;;;
2021/12/20 07:45:58;;;;;;;;;;;2.00;99.90;;;;;;5011876;28;19921;-77
2021/12/20 07:48:29;;;;;;;;;;;1.90;99.90;;;;;;4996558;28;19976;-76
2021/12/20 07:50:57;;;;;;;;;;;1.90;99.90;;;;;;5012570;28;19928;-77
2021/12/20 07:53:41;;;;;;;;;;;1.90;99.90;;;;;;5011711;28;20393;-77
2021/12/20 07:56:39;;;;;;;;;;;1.80;99.90;;;;;;4996490;28;20059;-77
2021/12/20 07:59:07;;;;;;;;;;;1.80;99.90;;;;;;4995068;28;19929;-76
2021/12/20 08:01:46;;;;;;;;;;;1.70;99.90;;;;;;4995804;28;19933;-77
2021/12/20 08:04:48;;;;;;;;;;;1.70;99.90;;;;;;4996452;28;20389;-77
2021/12/20 08:07:41;;;;;;;;;;;1.70;99.90;;;;;;4997414;28;19921;-76
2021/12/20 08:10:44;;;;;;;;;;;1.60;99.90;;;;;;4996680;28;19971;-77
2021/12/20 08:13:18;;;;;;;;;;;1.70;99.90;;;;;;4995772;28;19929;-77
2021/12/20 08:16:01;;;;;;;;;;;1.80;99.90;;;;;;4996572;28;19925;-76
2021/12/20 08:18:54;;;;;;;;;;;1.80;99.90;;;;;;5004988;28;19976;-77
2021/12/20 08:21:41;;;;;;;;;;;1.90;99.90;;;;;;4997102;28;19921;-76
2021/12/20 08:24:23;;;;;;;;;;;1.90;99.90;;;;;;4981728;28;20285;-76
2021/12/20 08:27:01;;;;;;;;;;;2.00;99.90;;;;;;5022303;23;19930;-81
2021/12/20 08:29:27;;;;;;;;;;;1.90;99.90;;;;;;4976021;28;19928;-81
2021/12/20 08:31:53;;;;;;;;;;;1.90;99.90;;;;;;4976001;28;19922;-82
2021/12/20 08:34:18;;;;;;;;;;;1.90;99.90;;;;;;4976080;28;19926;-81
2021/12/20 08:36:44;;;;;;;;;;;1.90;99.90;;;;;;4976199;28;19921;-81
2021/12/20 08:39:14;;;;;;;;;;;1.80;99.90;;;;;;4976500;28;19945;-82
2021/12/20 08:41:39;;;;;;;;;;;1.80;99.90;;;;;;4976353;28;19922;-82
2021/12/20 08:44:04;;;;;;;;;;;1.90;99.90;;;;;;4975939;28;19922;-81
2021/12/20 08:46:30;;;;;;;;;;;2.00;99.90;;;;;;4976443;28;19929;-81
2021/12/20 08:48:57;;;;;;;;;;;2.10;99.90;;;;;;5008134;28;21286;-81
2021/12/20 08:51:25;;;;;;;;;;;2.20;99.90;;;;;;4975945;28;20318;-81
2021/12/20 08:53:51;;;;;;;;;;;2.30;99.90;;;;;;4975751;28;19932;-81
2021/12/20 08:56:16;;;;;;;;;;;2.30;99.90;;;;;;5008195;28;19926;-81
2021/12/20 08:58:41;;;;;;;;;;;2.40;99.90;;;;;;4991987;28;19922;-81
2021/12/20 09:01:07;;;;;;;;;;;2.50;99.90;;;;;;4975832;28;19928;-81
2021/12/20 09:03:32;;;;;;;;;;;2.50;99.90;;;;;;4975694;28;19921;-81
2021/12/20 09:05:58;;;;;;;;;;;2.50;99.90;;;;;;4975488;28;19928;-81
2021/12/20 09:08:23;;;;;;;;;;;2.60;99.90;;;;;;4975063;28;19922;-82
2021/12/20 09:10:49;;;;;;;;;;;2.60;99.90;;;;;;4975515;28;19922;-81
2021/12/20 09:13:15;;;;;;;;;;;2.60;99.90;;;;;;4975644;28;19922;-81
2021/12/20 09:15:41;;;;;;;;;;;2.60;99.90;;;;;;4975389;28;20301;-81
2021/12/20 09:18:08;;;;;;;;;;;2.60;99.90;;;;;;5008041;28;20404;-81
2021/12/20 09:20:36;;;;;;;;;;;2.70;99.90;;;;;;4975686;28;19996;-81
2021/12/20 09:23:06;;;;;;;;;;;2.70;99.90;;;;;;5008247;28;19929;-81
2021/12/20 09:25:32;;;;;;;;;;;2.80;99.90;;;;;;5008142;28;19922;-81
2021/12/20 09:27:58;;;;;;;;;;;2.90;99.90;;;;;;5008593;28;19975;-82
2021/12/20 09:30:25;;;;;;;;;;;2.90;99.90;;;;;;4975488;28;19931;-83
2021/12/20 09:32:51;;;;;;;;;;;2.90;99.90;;;;;;5008202;28;20337;-81
2021/12/20 09:35:16;;;;;;;;;;;2.90;99.90;;;;;;4975468;28;19930;-82
2021/12/20 09:37:42;;;;;;;;;;;3.00;99.90;;;;;;4975780;28;20390;-81
2021/12/20 09:40:09;;;;;;;;;;;3.00;99.90;;;;;;4975508;28;19969;-82
2021/12/20 09:42:34;;;;;;;;;;;3.10;99.90;;;;;;4975125;28;19945;-81
2021/12/20 09:45:01;;;;;;;;;;;3.20;99.90;;;;;;4975602;28;20020;-81
2021/12/20 09:47:33;;;;;;;;;;;3.30;99.90;;;;;;5007826;28;19967;-81
2021/12/20 09:50:02;;;;;;;;;;;3.30;99.90;;;;;;4975503;28;19926;-82
2021/12/20 09:52:28;;;;;;;;;;;3.40;99.90;;;;;;4975548;28;20295;-81
2021/12/20 09:54:53;;;;;;;;;;;3.50;99.90;;;;;;4975099;28;19933;-81
2021/12/20 09:57:20;;;;;;;;;;;3.60;99.90;;;;;;4974966;28;19922;-81
2021/12/20 09:59:46;;;;;;;;;;;3.60;99.90;;;;;;4975001;28;20404;-81
2021/12/20 10:02:11;;;;;;;;;;;3.70;99.90;;;;;;5007643;28;19922;-82
2021/12/20 10:04:37;;;;;;;;;;;3.80;99.90;;;;;;4975054;28;19962;-82
2021/12/20 10:07:03;;;;;;;;;;;3.80;99.90;;;;;;4975037;28;19922;-81
2021/12/20 10:09:33;;;;;;;;;;;3.90;99.90;;;;;;4974868;28;20012;-81
2021/12/20 10:12:09;;;;;;;;;;;3.90;99.90;;;;;;5007579;28;19929;-81
2021/12/20 10:14:49;;;;;;;;;;;3.90;99.90;;;;;;4974885;28;20021;-81
2021/12/20 10:17:15;;;;;;;;;;;4.00;99.90;;;;;;4974988;28;19928;-81
2021/12/20 10:19:40;;;;;;;;;;;4.00;99.90;;;;;;4975238;28;20009;-81
2021/12/20 10:22:24;;;;;;;;;;;4.00;99.90;;;;;;4978367;28;20306;-81
2021/12/20 10:24:50;;;;;;;;;;;4.10;99.90;;;;;;4978546;28;20293;-81
2021/12/20 10:27:32;;;;;;;;;;;4.10;99.90;;;;;;4978307;28;19928;-81
2021/12/20 10:29:58;;;;;;;;;;;4.20;99.90;;;;;;4978410;28;19930;-82
2021/12/20 10:32:39;;;;;;;;;;;4.20;99.90;;;;;;4978168;28;19980;-81
2021/12/20 10:35:25;;;;;;;;;;;4.30;99.90;;;;;;4978224;28;19932;-82
2021/12/20 10:37:52;;;;;;;;;;;4.30;99.90;;;;;;4987181;28;20069;-82
2021/12/20 10:40:18;;;;;;;;;;;4.40;99.90;;;;;;4978045;28;19929;-82
2021/12/20 10:42:43;;;;;;;;;;;4.40;99.90;;;;;;4977750;28;19922;-82
2021/12/20 10:45:13;;;;;;;;;;;4.40;99.90;;;;;;4978296;28;19922;-82
2021/12/20 10:47:39;;;;;;;;;;;4.50;99.90;;;;;;4978118;28;19926;-82
2021/12/20 10:50:24;;;;;;;;;;;4.50;99.90;;;;;;4977998;28;19928;-82
2021/12/20 10:52:49;;;;;;;;;;;4.60;99.90;;;;;;4994147;28;19984;-82
2021/12/20 10:55:38;;;;;;;;;;;4.60;99.90;;;;;;5010348;28;19930;-82
2021/12/20 10:58:16;;;;;;;;;;;4.60;99.90;;;;;;4988680;28;19926;-82
2021/12/20 11:00:42;;;;;;;;;;;4.70;99.90;;;;;;4977690;28;19922;-81
2021/12/20 11:05:44;;;;;;;;;;;4.70;99.90;;;;;;5009989;28;19926;-82
2021/12/20 11:11:10;;;;;;;;;;;4.80;99.90;;;;;;5010610;28;20294;-82
2021/12/20 11:13:37;;;;;;;;;;;4.80;99.90;;;;;;5010199;28;19922;-82
2021/12/20 11:16:21;;;;;;;;;;;4.80;99.90;;;;;;4979507;28;19922;-81
2021/12/20 11:18:46;;;;;;;;;;;4.90;99.90;;;;;;4977406;28;19933;-82
2021/12/20 11:21:12;;;;;;;;;;;5.40;99.90;;;;;;5010046;28;19922;-82
2021/12/20 11:23:38;;;;;;;;;;;5.90;99.90;;;;;;4977065;28;19944;-82
2021/12/20 11:26:03;;;;;;;;;;;6.20;99.90;;;;;;5009845;28;19922;-83
2021/12/20 11:28:28;;;;;;;;;;;6.50;99.90;;;;;;4977077;28;19993;-82
2021/12/20 11:30:54;;;;;;;;;;;6.90;99.90;;;;;;4977492;28;19988;-82
2021/12/20 11:33:19;;;;;;;;;;;7.30;99.90;;;;;;4976247;28;19929;-83
2021/12/20 11:35:45;;;;;;;;;;;7.80;99.90;;;;;;4976983;28;20313;-82
2021/12/20 11:38:10;;;;;;;;;;;8.50;99.90;;;;;;4977244;28;19921;-82
2021/12/20 11:40:36;;;;;;;;;;;9.50;99.90;;;;;;4976935;28;19926;-83
2021/12/20 11:43:01;;;;;;;;;;;10.40;99.90;;;;;;4976978;28;20275;-83
2021/12/20 11:45:27;;;;;;;;;;;11.30;99.90;;;;;;4993384;28;19983;-82
2021/12/20 11:48:03;;;;;;;;;;;12.10;99.90;;;;;;4993803;28;20020;-82
2021/12/20 11:50:39;;;;;;;;;;;12.70;99.90;;;;;;4993850;28;20005;-83
2021/12/20 11:53:12;;;;;;;;;;;13.00;99.90;;;;;;4977417;28;19944;-82
2021/12/20 11:55:43;;;;;;;;;;;13.30;99.90;;;;;;4993018;28;19926;-83
2021/12/20 11:58:18;;;;;;;;;;;13.70;99.90;;;;;;4976966;28;19971;-83
2021/12/20 12:00:50;;;;;;;;;;;13.80;99.90;;;;;;4976956;28;19929;-83
2021/12/20 12:03:24;;;;;;;;;;;13.70;99.90;;;;;;4976838;28;20020;-83
2021/12/20 12:05:54;;;;;;;;;;;13.80;99.90;;;;;;4976999;28;20341;-82
2021/12/20 12:08:20;;;;;;;;;;;13.90;99.90;;;;;;4977379;28;20433;-83
2021/12/20 12:10:45;;;;;;;;;;;14.10;99.90;;;;;;4976768;28;20031;-82
2021/12/20 12:13:16;;;;;;;;;;;14.00;99.90;;;;;;4992834;28;19981;-82
2021/12/20 12:15:52;;;;;;;;;;;13.20;99.90;;;;;;4992850;28;19926;-83
2021/12/20 12:18:18;;;;;;;;;;;12.10;99.90;;;;;;4992975;28;19921;-83
2021/12/20 12:20:52;;;;;;;;;;;11.50;99.90;;;;;;4993070;28;20401;-82
2021/12/20 12:23:22;;;;;;;;;;;11.60;99.90;;;;;;4992951;28;19922;-83
2021/12/20 12:25:53;;;;;;;;;;;11.70;99.90;;;;;;4976564;28;19922;-83
2021/12/20 12:28:20;;;;;;;;;;;11.80;99.90;;;;;;4977021;28;20282;-83
2021/12/20 12:30:55;;;;;;;;;;;11.90;99.90;;;;;;4976790;28;19926;-82
2021/12/20 12:33:21;;;;;;;;;;;12.30;99.90;;;;;;4976954;28;20279;-83
2021/12/20 12:35:50;;;;;;;;;;;12.30;99.90;;;;;;4992599;28;20061;-83
2021/12/20 12:38:20;;;;;;;;;;;12.30;99.90;;;;;;4992929;28;19928;-83
2021/12/20 12:40:49;;;;;;;;;;;12.60;99.90;;;;;;4976413;28;19921;-83
2021/12/20 12:43:16;;;;;;;;;;;12.90;99.90;;;;;;4992096;28;19926;-83
2021/12/20 12:45:52;;;;;;;;;;;12.90;99.30;;;;;;4992450;28;20428;-83
2021/12/20 12:48:34;;;;;;;;;;;12.30;99.90;;;;;;4976323;28;19922;-83
2021/12/20 12:51:04;;;;;;;;;;;11.80;99.90;;;;;;4992483;28;19922;-83
2021/12/20 12:53:38;;;;;;;;;;;11.50;99.90;;;;;;4992064;28;19961;-83
2021/12/20 12:56:23;;;;;;;;;;;11.10;99.90;;;;;;4975808;28;19926;-83
2021/12/20 12:59:07;;;;;;;;;;;10.80;99.90;;;;;;4976001;28;19930;-83
2021/12/20 13:01:33;;;;;;;;;;;10.60;99.90;;;;;;4975581;28;20023;-83
2021/12/20 13:03:58;;;;;;;;;;;10.10;99.90;;;;;;4975995;28;20329;-83
2021/12/20 13:06:24;;;;;;;;;;;9.40;99.90;;;;;;4991731;28;19928;-83
2021/12/20 13:08:53;;;;;;;;;;;8.80;99.90;;;;;;4975861;28;20024;-83
2021/12/20 13:11:23;;;;;;;;;;;8.20;99.90;;;;;;4975990;28;19969;-82
2021/12/20 13:13:56;;;;;;;;;;;7.80;99.90;;;;;;4975871;28;20000;-82
2021/12/20 13:16:26;;;;;;;;;;;7.50;99.90;;;;;;4975709;28;20382;-82
2021/12/20 13:18:53;;;;;;;;;;;7.30;99.90;;;;;;4975481;28;19929;-82
2021/12/20 13:21:35;;;;;;;;;;;7.10;99.90;;;;;;4975764;28;19925;-83
2021/12/20 13:24:00;;;;;;;;;;;7.00;99.90;;;;;;5007949;28;19922;-83
2021/12/20 13:26:30;;;;;;;;;;;6.80;99.90;;;;;;5007899;28;20009;-82
2021/12/20 13:28:57;;;;;;;;;;;6.70;99.90;;;;;;4975387;28;19922;-82
2021/12/20 13:31:26;;;;;;;;;;;6.60;99.90;;;;;;4975525;28;19994;-82
2021/12/20 13:33:52;;;;;;;;;;;6.40;99.90;;;;;;4975343;28;20404;-82
2021/12/20 13:36:18;;;;;;;;;;;6.40;99.90;;;;;;4975444;28;19965;-82
2021/12/20 13:38:45;;;;;;;;;;;6.30;99.90;;;;;;4975815;28;19922;-83
2021/12/20 13:41:14;;;;;;;;;;;6.20;99.90;;;;;;5008609;28;19922;-82
2021/12/20 13:43:42;;;;;;;;;;;6.30;99.90;;;;;;4975219;28;19972;-82
2021/12/20 13:46:16;;;;;;;;;;;6.20;99.90;;;;;;5008173;28;20370;-82
2021/12/20 13:48:46;;;;;;;;;;;6.10;99.90;;;;;;4975593;28;19922;-83
2021/12/20 13:51:12;;;;;;;;;;;6.00;99.90;;;;;;5008102;28;19922;-83
2021/12/20 13:53:37;;;;;;;;;;;5.90;99.90;;;;;;4975407;28;20393;-83
2021/12/20 13:56:04;;;;;;;;;;;5.80;99.90;;;;;;5010666;28;19929;-82
2021/12/20 13:58:30;;;;;;;;;;;5.70;99.90;;;;;;5011664;28;19922;-82
2021/12/20 14:00:56;;;;;;;;;;;5.60;99.90;;;;;;5011953;28;20285;-82
2021/12/20 14:03:22;;;;;;;;;;;5.50;99.90;;;;;;4979273;28;19921;-83
2021/12/20 14:05:47;;;;;;;;;;;5.40;99.90;;;;;;5011734;28;19929;-83
2021/12/20 14:08:18;;;;;;;;;;;5.40;99.90;;;;;;4978969;28;19929;-82
2021/12/20 14:10:44;;;;;;;;;;;5.30;99.90;;;;;;5011866;28;20282;-83
2021/12/20 14:13:16;;;;;;;;;;;5.30;99.90;;;;;;5011353;28;20048;-83
2021/12/20 14:15:44;;;;;;;;;;;5.20;99.90;;;;;;4978622;28;20278;-83
2021/12/20 14:18:11;;;;;;;;;;;5.20;99.90;;;;;;4978511;28;19930;-82
2021/12/20 14:20:39;;;;;;;;;;;5.20;99.90;;;;;;4978623;28;19972;-83
2021/12/20 14:23:10;;;;;;;;;;;5.20;99.90;;;;;;4978307;28;20016;-82
2021/12/20 14:25:41;;;;;;;;;;;5.10;99.90;;;;;;4979029;28;20358;-81
2021/12/20 14:28:16;;;;;;;;;;;5.10;99.90;;;;;;4978822;28;19933;-82
2021/12/20 14:31:02;;;;;;;;;;;5.00;99.90;;;;;;4978441;28;20227;-81
2021/12/20 14:33:27;;;;;;;;;;;5.00;99.90;;;;;;4994162;28;19968;-82
2021/12/20 14:35:59;;;;;;;;;;;4.90;99.90;;;;;;5011011;28;19930;-81
2021/12/20 14:38:26;;;;;;;;;;;4.90;99.90;;;;;;4978379;28;19922;-82
2021/12/20 14:40:52;;;;;;;;;;;4.80;99.90;;;;;;4978748;28;20286;-82
2021/12/20 14:43:18;;;;;;;;;;;4.70;99.90;;;;;;4978135;28;19922;-82
2021/12/20 14:45:47;;;;;;;;;;;4.60;99.90;;;;;;5011113;28;20398;-82
2021/12/20 14:48:14;;;;;;;;;;;4.50;99.90;;;;;;4978428;28;19928;-82
2021/12/20 14:50:43;;;;;;;;;;;4.30;99.90;;;;;;4978095;28;19922;-82
2021/12/20 14:53:17;;;;;;;;;;;4.20;99.90;;;;;;5010445;28;19968;-82
2021/12/20 14:55:42;;;;;;;;;;;4.10;99.90;;;;;;4977976;28;19925;-82
2021/12/20 14:58:08;;;;;;;;;;;4.00;99.90;;;;;;5011000;28;20401;-81
2021/12/20 15:00:33;;;;;;;;;;;3.90;99.90;;;;;;5010588;28;20349;-82
2021/12/20 15:02:59;;;;;;;;;;;3.80;99.90;;;;;;4977612;28;19922;-83